createdAt,value
2023-04-18T00:00:49.624Z,64.97
2023-04-18T00:03:16.883Z,64.74
2023-04-18T00:05:48.374Z,64.57
2023-04-18T00:08:15.668Z,64.73
2023-04-18T00:10:42.816Z,64.99
2023-04-18T00:13:10.590Z,64.97
2023-04-18T00:15:37.745Z,64.97
2023-04-18T00:18:06.417Z,65.10
2023-04-18T00:20:33.550Z,65.21
2023-04-18T00:23:01.011Z,65.57
2023-04-18T00:25:28.055Z,65.85
2023-04-18T00:27:54.995Z,65.88
2023-04-18T00:30:21.838Z,65.84
2023-04-18T00:32:48.788Z,65.62
2023-04-18T00:35:16.256Z,65.51
2023-04-18T00:37:43.376Z,65.41
2023-04-18T00:40:10.972Z,65.53
2023-04-18T00:42:37.881Z,65.61
2023-04-18T00:45:06.547Z,65.72
2023-04-18T00:47:33.461Z,65.94
2023-04-18T00:50:00.859Z,66.13
2023-04-18T00:52:28.552Z,66.00
2023-04-18T00:54:55.982Z,66.25
2023-04-18T00:57:23.024Z,66.21
2023-04-18T00:59:50.170Z,66.01
2023-04-18T01:02:17.881Z,65.89
2023-04-18T01:04:45.329Z,66.31
2023-04-18T01:07:13.019Z,66.81
2023-04-18T01:09:41.881Z,66.79
2023-04-18T01:12:08.902Z,66.99
2023-04-18T01:14:35.922Z,67.05
2023-04-18T01:17:03.172Z,66.90
2023-04-18T01:19:30.604Z,66.64
2023-04-18T01:21:57.668Z,66.60
2023-04-18T01:24:27.345Z,66.76
2023-04-18T01:26:54.376Z,67.12
2023-04-18T01:29:21.723Z,67.07
2023-04-18T01:31:49.969Z,67.11
2023-04-18T01:34:18.608Z,66.91
2023-04-18T01:36:46.555Z,66.99
2023-04-18T01:39:14.254Z,67.38
2023-04-18T01:41:42.640Z,67.11
2023-04-18T01:44:09.678Z,67.04
2023-04-18T01:46:37.389Z,67.13
2023-04-18T01:49:04.490Z,67.17
2023-04-18T01:51:32.130Z,67.34
2023-04-18T01:53:59.192Z,67.81
2023-04-18T01:56:26.363Z,67.76
2023-04-18T01:58:53.257Z,67.62
2023-04-18T02:01:20.921Z,67.45
2023-04-18T02:03:48.456Z,66.88
2023-04-18T02:06:16.061Z,66.58
2023-04-18T02:08:42.927Z,66.42
2023-04-18T02:11:10.262Z,66.22
2023-04-18T02:13:37.289Z,65.97
2023-04-18T02:16:04.383Z,65.71
2023-04-18T02:18:34.970Z,66.02
2023-04-18T02:21:02.737Z,65.83
2023-04-18T02:23:30.042Z,65.48
2023-04-18T02:25:57.123Z,65.13
2023-04-18T02:28:24.166Z,64.85
2023-04-18T02:30:51.481Z,64.66
2023-04-18T02:33:18.465Z,64.86
2023-04-18T02:35:45.924Z,65.49
2023-04-18T02:38:14.190Z,65.46
2023-04-18T02:40:41.452Z,65.34
2023-04-18T02:43:09.087Z,64.89
2023-04-18T02:45:36.323Z,64.67
2023-04-18T02:48:03.604Z,64.45
2023-04-18T02:50:30.923Z,64.36
2023-04-18T02:52:58.130Z,64.32
2023-04-18T02:55:27.293Z,64.24
2023-04-18T02:57:54.603Z,64.73
2023-04-18T03:00:21.694Z,64.70
2023-04-18T03:02:48.766Z,64.46
2023-04-18T03:05:15.784Z,64.31
2023-04-18T03:07:42.831Z,64.33
2023-04-18T03:10:10.794Z,64.48
2023-04-18T03:12:37.844Z,64.80
2023-04-18T03:15:05.598Z,64.78
2023-04-18T03:17:33.046Z,65.00
2023-04-18T03:20:00.124Z,65.52
2023-04-18T03:22:27.320Z,64.92
2023-04-18T03:24:54.403Z,65.27
2023-04-18T03:27:21.445Z,65.72
2023-04-18T03:29:48.386Z,65.52
2023-04-18T03:32:15.433Z,65.07
2023-04-18T03:34:42.373Z,65.01
2023-04-18T03:37:09.649Z,64.72
2023-04-18T03:39:36.870Z,64.98
2023-04-18T03:42:04.224Z,65.11
2023-04-18T03:44:31.679Z,64.92
2023-04-18T03:46:59.030Z,64.75
2023-04-18T03:49:26.219Z,64.81
2023-04-18T03:51:53.157Z,65.10
2023-04-18T03:54:20.267Z,65.30
2023-04-18T03:56:47.802Z,65.41
2023-04-18T03:59:15.804Z,65.32
2023-04-18T04:01:43.147Z,65.08
2023-04-18T04:04:12.553Z,64.86
2023-04-18T04:06:40.013Z,64.96
2023-04-18T04:09:07.157Z,65.17
2023-04-18T04:11:34.366Z,65.21
2023-04-18T04:14:01.599Z,65.41
2023-04-18T04:16:29.128Z,65.62
2023-04-18T04:18:56.262Z,65.51
2023-04-18T04:21:23.305Z,65.32
2023-04-18T04:23:50.451Z,65.29
2023-04-18T04:26:17.600Z,65.24
2023-04-18T04:28:46.847Z,65.21
2023-04-18T04:31:14.206Z,65.08
2023-04-18T04:33:41.389Z,65.39
2023-04-18T04:36:09.799Z,65.12
2023-04-18T04:38:38.758Z,64.93
2023-04-18T04:41:08.050Z,64.75
2023-04-18T04:43:35.302Z,64.58
2023-04-18T04:46:08.129Z,64.67
2023-04-18T04:48:35.829Z,65.05
2023-04-18T04:51:03.006Z,65.54
2023-04-18T04:53:33.419Z,65.64
2023-04-18T04:56:00.864Z,65.53
2023-04-18T04:58:28.950Z,65.47
2023-04-18T05:00:56.215Z,65.37
2023-04-18T05:03:23.480Z,65.40
2023-04-18T05:05:50.931Z,65.08
2023-04-18T05:08:18.144Z,65.01
2023-04-18T05:10:46.280Z,64.86
2023-04-18T05:13:13.980Z,64.62
2023-04-18T05:15:41.230Z,64.47
2023-04-18T05:18:09.051Z,64.10
2023-04-18T05:20:36.419Z,64.02
2023-04-18T05:23:03.592Z,64.15
2023-04-18T05:25:31.974Z,64.09
2023-04-18T05:28:01.577Z,63.69
2023-04-18T05:30:33.534Z,63.39
2023-04-18T05:33:08.293Z,63.47
2023-04-18T05:35:41.700Z,63.53
2023-04-18T05:38:08.675Z,63.50
2023-04-18T05:40:36.053Z,63.27
2023-04-18T05:43:03.083Z,63.72
2023-04-18T05:45:30.144Z,63.57
2023-04-18T05:47:57.530Z,63.34
2023-04-18T05:50:24.640Z,63.78
2023-04-18T05:52:51.896Z,63.56
2023-04-18T05:55:19.041Z,63.13
2023-04-18T05:57:45.986Z,62.58
2023-04-18T06:00:14.009Z,62.35
2023-04-18T06:02:41.473Z,62.47
2023-04-18T06:05:09.589Z,62.64
2023-04-18T06:07:36.853Z,62.53
2023-04-18T06:10:06.223Z,62.27
2023-04-18T06:12:33.075Z,62.26
2023-04-18T06:15:00.285Z,62.30
2023-04-18T06:17:27.766Z,62.51
2023-04-18T06:19:54.729Z,62.31
2023-04-18T06:22:21.804Z,61.95
2023-04-18T06:24:49.113Z,61.70
2023-04-18T06:27:30.130Z,61.30
2023-04-18T06:29:58.278Z,60.99
2023-04-18T06:32:25.758Z,60.78
2023-04-18T06:34:53.592Z,60.55
2023-04-18T06:37:21.130Z,60.53
2023-04-18T06:39:48.436Z,60.08
2023-04-18T06:42:15.565Z,59.98
2023-04-18T06:44:43.419Z,60.20
2023-04-18T06:47:11.475Z,60.47
2023-04-18T06:49:38.580Z,60.31
2023-04-18T06:52:05.867Z,60.10
2023-04-18T06:54:32.915Z,60.18
2023-04-18T06:57:00.522Z,60.37
2023-04-18T06:59:27.443Z,59.98
2023-04-18T07:01:54.663Z,59.76
2023-04-18T07:04:22.179Z,59.25
2023-04-18T07:06:49.408Z,58.97
2023-04-18T07:09:16.759Z,62.06
2023-04-18T07:11:43.867Z,65.00
2023-04-18T07:14:12.549Z,63.98
2023-04-18T07:16:40.050Z,62.10
2023-04-18T07:19:07.160Z,61.17
2023-04-18T07:21:34.294Z,60.38
2023-04-18T07:24:01.559Z,60.38
2023-04-18T07:26:28.763Z,59.14
2023-04-18T07:28:55.741Z,60.81
2023-04-18T07:31:23.304Z,62.90
2023-04-18T07:33:50.642Z,64.63
2023-04-18T07:36:18.036Z,62.68
2023-04-18T07:38:45.875Z,60.81
2023-04-18T07:41:13.115Z,59.91
2023-04-18T07:43:40.880Z,58.14
2023-04-18T07:46:08.317Z,58.84
2023-04-18T07:48:35.565Z,61.16
2023-04-18T07:51:03.555Z,62.85
2023-04-18T07:53:30.903Z,61.10
2023-04-18T07:55:58.141Z,58.61
2023-04-18T07:58:25.563Z,58.45
2023-04-18T08:00:52.693Z,60.79
2023-04-18T08:03:20.265Z,62.80
2023-04-18T08:05:47.352Z,62.93
2023-04-18T08:08:14.438Z,59.23
2023-04-18T08:10:41.542Z,57.81
2023-04-18T08:13:09.154Z,59.19
2023-04-18T08:15:36.072Z,61.43
2023-04-18T08:18:03.247Z,62.81
2023-04-18T08:20:30.666Z,63.82
2023-04-18T08:23:07.357Z,61.06
2023-04-18T08:25:36.844Z,57.70
2023-04-18T08:28:04.380Z,57.76
2023-04-18T08:30:31.807Z,59.20
2023-04-18T08:33:01.066Z,60.89
2023-04-18T08:35:28.156Z,61.75
2023-04-18T08:37:55.167Z,61.99
2023-04-18T08:40:22.688Z,59.65
2023-04-18T08:42:52.461Z,56.79
2023-04-18T08:45:20.362Z,57.26
2023-04-18T08:47:47.674Z,58.14
2023-04-18T08:50:15.379Z,58.93
2023-04-18T08:52:49.157Z,59.34
2023-04-18T08:55:17.168Z,59.47
2023-04-18T08:57:45.020Z,59.79
2023-04-18T09:00:13.014Z,60.38
2023-04-18T09:02:44.198Z,60.27
2023-04-18T09:05:22.200Z,60.40
2023-04-18T09:07:51.197Z,59.38
2023-04-18T09:10:31.068Z,58.51
2023-04-18T09:12:59.434Z,57.43
2023-04-18T09:15:29.465Z,57.74
2023-04-18T09:18:00.168Z,57.69
2023-04-18T09:20:35.351Z,57.79
2023-04-18T09:23:04.524Z,58.61
2023-04-18T09:25:42.703Z,58.37
2023-04-18T09:28:25.310Z,58.00
2023-04-18T09:30:53.467Z,58.14
2023-04-18T09:33:29.550Z,57.17
2023-04-18T09:35:57.725Z,57.40
2023-04-18T09:38:42.763Z,57.77
2023-04-18T09:41:12.066Z,58.06
2023-04-18T09:43:39.882Z,57.87
2023-04-18T09:46:08.545Z,57.32
2023-04-18T09:48:36.612Z,56.81
2023-04-18T09:51:10.042Z,56.20
2023-04-18T09:53:41.828Z,55.10
2023-04-18T09:56:32.135Z,53.90
2023-04-18T09:59:10.643Z,53.74
2023-04-18T10:01:40.559Z,53.20
2023-04-18T10:04:08.487Z,51.15
2023-04-18T10:06:42.305Z,50.84
2023-04-18T10:09:10.822Z,50.91
2023-04-18T10:11:38.899Z,51.30
2023-04-18T10:14:13.300Z,51.57
2023-04-18T10:16:42.416Z,51.97
2023-04-18T10:19:36.166Z,52.70
2023-04-18T10:22:03.263Z,52.75
2023-04-18T10:24:48.851Z,52.92
2023-04-18T10:27:18.419Z,52.74
2023-04-18T10:29:54.962Z,52.78
2023-04-18T10:32:25.015Z,52.34
2023-04-18T10:34:54.623Z,52.64
2023-04-18T10:37:22.282Z,51.57
2023-04-18T10:40:00.549Z,51.19
2023-04-18T10:42:52.910Z,50.79
2023-04-18T10:45:21.267Z,49.76
2023-04-18T10:47:49.236Z,49.32
2023-04-18T10:50:17.119Z,49.61
2023-04-18T10:52:45.235Z,49.53
2023-04-18T10:55:26.711Z,48.12
2023-04-18T10:57:57.405Z,48.30
2023-04-18T11:00:25.719Z,48.08
2023-04-18T11:02:56.668Z,48.38
2023-04-18T11:05:27.038Z,48.35
2023-04-18T11:07:54.617Z,48.47
2023-04-18T11:10:24.736Z,47.25
2023-04-18T11:12:53.342Z,46.38
2023-04-18T11:15:22.885Z,46.62
2023-04-18T11:18:01.799Z,46.81
2023-04-18T11:20:30.860Z,46.73
2023-04-18T11:23:00.158Z,46.86
2023-04-18T11:25:41.320Z,47.35
2023-04-18T11:28:08.308Z,46.88
2023-04-18T11:30:40.657Z,47.10
2023-04-18T11:33:12.833Z,46.23
2023-04-18T11:35:41.752Z,46.95
2023-04-18T11:38:10.687Z,47.14
2023-04-18T11:40:38.457Z,46.68
2023-04-18T11:43:07.479Z,46.35
2023-04-18T11:45:35.398Z,46.17
2023-04-18T11:48:03.249Z,45.58
2023-04-18T11:50:37.482Z,44.64
2023-04-18T11:53:04.566Z,43.51
2023-04-18T11:55:31.621Z,42.71
2023-04-18T11:58:00.380Z,43.13
2023-04-18T12:00:42.382Z,41.30
2023-04-18T12:03:19.084Z,40.77
2023-04-18T12:05:46.376Z,40.32
2023-04-18T12:08:25.658Z,41.01
2023-04-18T12:10:54.076Z,40.87
2023-04-18T12:13:34.510Z,38.48
2023-04-18T12:16:02.876Z,39.88
2023-04-18T12:18:30.521Z,39.35
2023-04-18T12:20:58.860Z,39.42
2023-04-18T12:23:40.567Z,39.03
2023-04-18T12:26:15.653Z,39.56
2023-04-18T12:28:46.695Z,39.86
2023-04-18T12:31:13.990Z,40.27
2023-04-18T12:33:41.319Z,39.75
2023-04-18T12:36:11.672Z,38.50
2023-04-18T12:38:38.754Z,39.25
2023-04-18T12:41:06.216Z,39.10
2023-04-18T12:43:33.473Z,38.99
2023-04-18T12:46:00.513Z,38.66
2023-04-18T12:48:27.932Z,37.42
2023-04-18T12:50:55.023Z,37.43
2023-04-18T12:53:22.531Z,38.26
2023-04-18T12:55:50.194Z,37.55
2023-04-18T12:58:19.007Z,37.95
2023-04-18T13:00:46.686Z,38.33
2023-04-18T13:03:14.273Z,37.78
2023-04-18T13:05:41.587Z,37.53
2023-04-18T13:08:16.751Z,38.03
2023-04-18T13:10:46.075Z,38.37
2023-04-18T13:13:13.640Z,38.01
2023-04-18T13:15:41.354Z,37.51
2023-04-18T13:18:08.392Z,37.96
2023-04-18T13:20:36.426Z,37.73
2023-04-18T13:23:03.812Z,37.48
2023-04-18T13:25:31.796Z,37.70
2023-04-18T13:28:01.037Z,37.70
2023-04-18T13:30:28.532Z,37.34
2023-04-18T13:32:56.172Z,37.81
2023-04-18T13:35:23.332Z,38.33
2023-04-18T13:37:50.760Z,38.12
2023-04-18T13:40:18.376Z,37.42
2023-04-18T13:42:45.394Z,37.54
2023-04-18T13:45:12.398Z,37.75
2023-04-18T13:47:40.176Z,37.81
2023-04-18T13:50:08.648Z,37.74
2023-04-18T13:52:36.924Z,37.73
2023-04-18T13:55:04.328Z,37.59
2023-04-18T13:57:33.783Z,37.66
2023-04-18T14:00:00.638Z,38.06
2023-04-18T14:02:27.719Z,38.06
2023-04-18T14:04:55.771Z,38.25
2023-04-18T14:07:22.962Z,38.31
2023-04-18T14:09:50.833Z,38.46
2023-04-18T14:18:09.560Z,38.61
2023-04-18T14:20:36.965Z,38.79
2023-04-18T14:23:04.049Z,38.52
2023-04-18T14:25:31.499Z,38.30
2023-04-18T14:28:10.987Z,38.34
2023-04-18T14:30:40.064Z,38.52
2023-04-18T14:33:09.893Z,38.73
2023-04-18T14:35:37.848Z,38.67
2023-04-18T14:38:04.855Z,38.33
2023-04-18T14:40:33.041Z,38.53
2023-04-18T14:43:00.524Z,38.70
2023-04-18T14:45:28.168Z,38.96
2023-04-18T14:47:56.301Z,39.01
2023-04-18T14:50:23.702Z,39.15
2023-04-18T14:52:51.591Z,39.19
2023-04-18T14:55:22.352Z,39.49
2023-04-18T14:57:49.365Z,39.75
2023-04-18T15:00:16.979Z,39.99
2023-04-18T15:02:44.547Z,39.92
2023-04-18T15:05:13.082Z,39.95
2023-04-18T15:07:42.356Z,39.53
2023-04-18T15:10:12.915Z,39.55
2023-04-18T15:12:40.178Z,40.23
2023-04-18T15:15:07.947Z,42.43
2023-04-18T15:17:35.347Z,43.04
2023-04-18T15:20:02.599Z,43.30
2023-04-18T15:22:29.698Z,43.61
2023-04-18T15:24:56.705Z,43.59
2023-04-18T15:27:34.634Z,43.48
2023-04-18T15:30:13.780Z,43.87
2023-04-18T15:32:42.545Z,44.43
2023-04-18T15:35:11.134Z,44.48
2023-04-18T15:37:38.389Z,44.72
2023-04-18T15:40:09.878Z,44.82
2023-04-18T15:42:37.538Z,44.53
2023-04-18T15:45:05.701Z,44.72
2023-04-18T15:47:34.784Z,44.83
2023-04-18T15:50:03.827Z,44.80
2023-04-18T15:52:30.903Z,45.00
2023-04-18T15:54:58.226Z,44.94
2023-04-18T15:57:25.548Z,45.33
2023-04-18T15:59:52.582Z,45.36
2023-04-18T16:02:20.691Z,45.40
2023-04-18T16:04:50.357Z,45.52
2023-04-18T16:07:35.325Z,45.15
2023-04-18T16:10:11.573Z,44.76
2023-04-18T16:12:51.681Z,44.82
2023-04-18T16:15:18.893Z,44.88
2023-04-18T16:17:46.385Z,45.15
2023-04-18T16:20:13.996Z,45.65
2023-04-18T16:22:41.591Z,46.35
2023-04-18T16:25:09.296Z,46.84
2023-04-18T16:27:36.277Z,47.30
2023-04-18T16:30:04.147Z,47.54
2023-04-18T16:32:31.367Z,48.15
2023-04-18T16:34:58.712Z,48.56
2023-04-18T16:37:25.710Z,49.02
2023-04-18T16:39:52.740Z,49.20
2023-04-18T16:42:19.599Z,49.31
2023-04-18T16:44:47.549Z,49.56
2023-04-18T16:47:14.899Z,49.84
2023-04-18T16:49:43.991Z,49.91
2023-04-18T16:52:11.122Z,50.00
2023-04-18T16:54:38.233Z,49.80
2023-04-18T16:57:05.383Z,50.15
2023-04-18T16:59:32.270Z,50.28
2023-04-18T17:01:59.845Z,50.11
2023-04-18T17:04:30.076Z,50.40
2023-04-18T17:06:57.633Z,50.43
2023-04-18T17:09:25.115Z,50.50
2023-04-18T17:11:52.067Z,50.97
2023-04-18T17:14:19.507Z,51.18
2023-04-18T17:16:47.004Z,51.06
2023-04-18T17:19:14.493Z,51.41
2023-04-18T17:21:42.331Z,51.38
2023-04-18T17:24:09.888Z,51.67
2023-04-18T17:26:39.195Z,51.76
2023-04-18T17:29:06.655Z,52.03
2023-04-18T17:31:34.631Z,52.21
2023-04-18T17:34:02.278Z,52.21
2023-04-18T17:36:29.748Z,52.28
2023-04-18T17:38:58.560Z,52.83
2023-04-18T17:41:25.967Z,52.95
2023-04-18T17:43:53.223Z,53.19
2023-04-18T17:46:20.187Z,54.12
2023-04-18T17:48:47.439Z,54.90
2023-04-18T17:51:16.865Z,55.96
2023-04-18T17:53:43.886Z,57.03
2023-04-18T17:56:11.304Z,57.38
2023-04-18T17:58:38.351Z,57.94
2023-04-18T18:01:17.744Z,58.12
2023-04-18T18:03:45.393Z,58.89
2023-04-18T18:06:14.320Z,58.43
2023-04-18T18:08:42.894Z,59.31
2023-04-18T18:11:11.205Z,59.62
2023-04-18T18:13:42.026Z,60.05
2023-04-18T18:16:09.489Z,60.53
2023-04-18T18:18:37.657Z,60.65
2023-04-18T18:21:05.206Z,60.79
2023-04-18T18:23:32.242Z,61.09
2023-04-18T18:26:00.147Z,61.19
2023-04-18T18:28:27.193Z,61.28
2023-04-18T18:30:54.191Z,61.63
2023-04-18T18:33:21.266Z,61.78
2023-04-18T18:35:48.509Z,61.80
2023-04-18T18:38:15.349Z,62.01
2023-04-18T18:40:42.547Z,62.34
2023-04-18T18:43:09.605Z,64.21
2023-04-18T18:45:36.804Z,64.19
2023-04-18T18:48:04.362Z,59.70
2023-04-18T18:50:31.523Z,55.08
2023-04-18T18:52:58.866Z,56.51
2023-04-18T18:55:27.035Z,58.38
2023-04-18T18:57:54.325Z,59.05
2023-04-18T19:00:21.865Z,60.25
2023-04-18T19:02:49.556Z,60.94
2023-04-18T19:05:17.837Z,61.84
2023-04-18T19:07:45.245Z,61.87
2023-04-18T19:10:12.631Z,62.25
2023-04-18T19:12:39.747Z,64.05
2023-04-18T19:15:07.788Z,61.50
2023-04-18T19:17:34.747Z,57.85
2023-04-18T19:20:02.016Z,55.36
2023-04-18T19:22:29.931Z,56.33
2023-04-18T19:24:57.467Z,57.87
2023-04-18T19:27:24.353Z,59.30
2023-04-18T19:29:51.705Z,60.02
2023-04-18T19:32:18.650Z,60.89
2023-04-18T19:34:45.910Z,61.83
2023-04-18T19:37:13.107Z,61.95
2023-04-18T19:39:40.085Z,63.36
2023-04-18T19:42:07.758Z,64.40
2023-04-18T19:44:35.194Z,61.07
2023-04-18T19:47:02.350Z,57.38
2023-04-18T19:49:29.508Z,56.75
2023-04-18T19:51:56.552Z,58.71
2023-04-18T19:54:23.518Z,60.07
2023-04-18T19:56:51.187Z,61.09
2023-04-18T19:59:18.150Z,62.66
2023-04-18T20:01:45.365Z,65.11
2023-04-18T20:04:12.702Z,63.42
2023-04-18T20:06:39.752Z,60.96
2023-04-18T20:09:07.182Z,59.23
2023-04-18T20:11:34.566Z,59.91
2023-04-18T20:14:01.608Z,61.52
2023-04-18T20:16:29.022Z,64.91
2023-04-18T20:18:56.898Z,66.05
2023-04-18T20:21:23.750Z,64.44
2023-04-18T20:23:51.352Z,65.48
2023-04-18T20:26:18.236Z,63.11
2023-04-18T20:28:45.602Z,62.75
2023-04-18T20:31:13.090Z,62.50
2023-04-18T20:33:40.043Z,62.59
2023-04-18T20:36:07.762Z,62.73
2023-04-18T20:38:34.738Z,62.22
2023-04-18T20:41:02.330Z,61.98
2023-04-18T20:43:29.381Z,61.43
2023-04-18T20:45:59.214Z,61.11
2023-04-18T20:48:26.705Z,58.61
2023-04-18T20:50:53.910Z,56.77
2023-04-18T20:53:22.872Z,57.62
2023-04-18T20:55:50.264Z,58.41
2023-04-18T20:58:17.539Z,59.52
2023-04-18T21:00:48.635Z,61.07
2023-04-18T21:03:16.963Z,64.76
2023-04-18T21:05:45.270Z,66.41
2023-04-18T21:08:13.025Z,64.78
2023-04-18T21:10:40.144Z,62.57
2023-04-18T21:13:07.389Z,62.06
2023-04-18T21:15:36.071Z,61.37
2023-04-18T21:18:03.125Z,61.17
2023-04-18T21:20:30.235Z,61.72
2023-04-18T21:22:57.747Z,60.97
2023-04-18T21:25:24.730Z,61.02
2023-04-18T21:27:52.189Z,60.61
2023-04-18T21:30:19.154Z,60.92
2023-04-18T21:32:47.480Z,60.66
2023-04-18T21:35:15.024Z,60.20
2023-04-18T21:37:43.191Z,57.97
2023-04-18T21:40:10.866Z,56.57
2023-04-18T21:42:38.392Z,58.74
2023-04-18T21:45:06.736Z,59.81
2023-04-18T21:47:34.162Z,60.95
2023-04-18T21:50:01.225Z,65.76
2023-04-18T21:52:28.227Z,69.55
2023-04-18T21:54:55.585Z,68.01
2023-04-18T21:57:22.627Z,65.44
2023-04-18T21:59:49.585Z,63.41
2023-04-18T22:02:16.729Z,61.69
2023-04-18T22:04:44.523Z,60.61
2023-04-18T22:07:13.143Z,58.11
2023-04-18T22:09:40.064Z,56.79
2023-04-18T22:12:07.270Z,58.41
2023-04-18T22:14:34.789Z,60.06
2023-04-18T22:17:03.676Z,64.16
2023-04-18T22:19:31.755Z,67.04
2023-04-18T22:21:59.031Z,65.72
2023-04-18T22:24:26.398Z,63.87
2023-04-18T22:26:53.828Z,62.67
2023-04-18T22:29:20.910Z,61.67
2023-04-18T22:31:47.961Z,60.75
2023-04-18T22:34:15.079Z,60.20
2023-04-18T22:36:44.504Z,57.84
2023-04-18T22:39:12.573Z,57.23
2023-04-18T22:41:39.441Z,58.59
2023-04-18T22:44:06.685Z,60.21
2023-04-18T22:46:33.622Z,64.34
2023-04-18T22:49:00.866Z,67.07
2023-04-18T22:51:28.998Z,65.77
2023-04-18T22:53:56.700Z,63.98
2023-04-18T22:56:23.689Z,62.84
2023-04-18T22:58:51.270Z,62.26
2023-04-18T23:01:18.851Z,61.36
2023-04-18T23:03:46.405Z,60.34
2023-04-18T23:06:13.561Z,60.15
2023-04-18T23:08:40.466Z,58.06
2023-04-18T23:11:13.851Z,56.54
2023-04-18T23:13:40.816Z,57.10
2023-04-18T23:16:08.388Z,58.58
2023-04-18T23:18:35.472Z,59.71
2023-04-18T23:21:02.297Z,60.96
2023-04-18T23:23:29.226Z,65.93
2023-04-18T23:25:55.988Z,69.87
2023-04-18T23:28:22.952Z,67.88
2023-04-18T23:30:50.773Z,65.76
2023-04-18T23:33:17.629Z,63.82
2023-04-18T23:35:44.454Z,62.57
2023-04-18T23:38:11.335Z,62.06
2023-04-18T23:40:38.333Z,60.76
2023-04-18T23:43:05.217Z,60.24
2023-04-18T23:45:32.230Z,60.05
2023-04-18T23:47:59.145Z,57.67
2023-04-18T23:50:26.257Z,57.22
2023-04-18T23:52:53.208Z,58.22
2023-04-18T23:55:20.117Z,59.79
2023-04-18T23:57:47.055Z,61.27
